Time;durP1;ratioP1;P1;durP2;ratioP2;P2;SDS_P1;SDS_P2;PMS_P1;PMS_P2;Temp;Humidity;BMP_temperature;BMP_pressure;BME280_temperature;BME280_humidity;BME280_pressure;Samples;Min_cycle;Max_cycle;Signal;HPM_P1;HPM_P2
2024/01/18 00:01:53;;;;;;;;;32.00;26.75;;;;;-143.90;100.00;73989.84;4722080;29;104981;-71
2024/01/18 00:04:19;;;;;;;;;28.00;22.75;;;;;-143.90;100.00;73977.44;4715097;29;104127;-72
2024/01/18 00:06:46;;;;;;;;;34.75;28.00;;;;;-143.90;100.00;73958.84;4736536;29;103070;-71
2024/01/18 00:09:13;;;;;;;;;44.33;36.33;;;;;-143.90;100.00;73948.50;4725682;29;107215;-71
2024/01/18 00:11:40;;;;;;;;;41.00;33.25;;;;;-143.90;100.00;73944.38;4718836;29;102674;-71
2024/01/18 00:14:07;;;;;;;;;51.75;31.50;;;;;-143.90;100.00;73944.38;4732378;29;104225;-71
2024/01/18 00:16:34;;;;;;;;;38.25;28.00;;;;;-143.90;100.00;73931.97;4732645;29;102884;-72
2024/01/18 00:19:01;;;;;;;;;33.00;22.50;;;;;-143.90;100.00;73929.91;4719310;29;102809;-71
2024/01/18 00:21:28;;;;;;;;;22.50;17.50;;;;;-143.90;100.00;73944.38;4715286;29;102671;-72
2024/01/18 00:23:55;;;;;;;;;20.75;18.50;;;;;-143.90;100.00;73952.63;4721400;29;109002;-71
2024/01/18 00:26:22;;;;;;;;;17.25;15.25;;;;;-143.90;100.00;73958.84;4729549;29;102165;-72
2024/01/18 00:28:49;;;;;;;;;18.50;13.75;;;;;-143.90;100.00;73960.91;4721735;29;102392;-72
2024/01/18 00:31:15;;;;;;;;;18.00;16.00;;;;;-143.90;100.00;73975.38;4726199;29;102783;-72
2024/01/18 00:33:42;;;;;;;;;11.25;10.00;;;;;-143.90;100.00;73979.50;4721947;29;104223;-72
2024/01/18 00:36:09;;;;;;;;;8.00;6.50;;;;;-143.90;100.00;73993.97;4706558;29;102761;-72
2024/01/18 00:38:36;;;;;;;;;17.25;14.00;;;;;-143.90;100.00;73993.97;4730430;29;102528;-71
2024/01/18 00:41:03;;;;;;;;;10.25;10.25;;;;;-143.90;100.00;73996.03;4726305;29;102641;-72
2024/01/18 00:43:30;;;;;;;;;19.25;13.00;;;;;-143.90;100.00;74006.38;4715943;29;104119;-73
2024/01/18 00:46:02;;;;;;;;;10.50;9.75;;;;;-143.90;100.00;74004.31;4717298;29;103732;-71
2024/01/18 00:48:28;;;;;;;;;13.50;11.25;;;;;-143.90;100.00;74004.31;4722353;29;102257;-73
2024/01/18 00:50:56;;;;;;;;;14.25;12.00;;;;;-143.90;100.00;74006.38;4722930;29;102337;-71
2024/01/18 00:53:22;;;;;;;;;13.50;12.00;;;;;-143.90;100.00;74014.66;4719926;29;103815;-71
2024/01/18 00:55:52;;;;;;;;;15.00;10.75;;;;;-143.90;100.00;74000.19;4707898;29;102634;-71
2024/01/18 00:58:19;;;;;;;;;12.00;12.00;;;;;-143.90;100.00;73998.13;4731758;29;102108;-72
2024/01/18 01:00:47;;;;;;;;;14.25;11.25;;;;;-143.90;100.00;73998.13;4724906;29;103172;-72
2024/01/18 01:03:14;;;;;;;;;11.50;10.50;;;;;-143.90;100.00;73993.97;4720960;29;103983;-72
2024/01/18 01:05:40;;;;;;;;;14.75;12.00;;;;;-143.90;100.00;73981.56;4720635;29;102855;-71
2024/01/18 01:08:07;;;;;;;;;16.00;15.00;;;;;-143.90;100.00;73960.91;4719499;29;105213;-71
2024/01/18 01:10:34;;;;;;;;;12.00;10.00;;;;;-143.90;100.00;73948.50;4724520;29;102150;-72
2024/01/18 01:13:00;;;;;;;;;18.50;16.00;;;;;-143.90;100.00;73936.09;4722469;29;104037;-73
2024/01/18 01:15:27;;;;;;;;;16.25;14.00;;;;;-143.90;100.00;73923.72;4724336;29;103601;-70
2024/01/18 01:17:54;;;;;;;;;17.50;14.50;;;;;-143.90;100.00;73903.03;4717829;29;102557;-71
2024/01/18 01:20:21;;;;;;;;;11.75;8.50;;;;;-143.90;100.00;73886.50;4722386;29;102305;-71
2024/01/18 01:22:47;;;;;;;;;10.25;9.50;;;;;-143.90;100.00;73880.31;4724176;29;104301;-71
2024/01/18 01:25:14;;;;;;;;;13.50;11.00;;;;;-143.90;100.00;73861.69;4742832;29;102406;-71
2024/01/18 01:27:41;;;;;;;;;12.25;10.00;;;;;-143.90;100.00;73838.97;4730701;29;102631;-71
2024/01/18 01:30:08;;;;;;;;;3.75;3.25;;;;;-143.90;100.00;73838.97;4741785;29;102792;-72
2024/01/18 01:32:34;;;;;;;;;7.75;7.75;;;;;-143.90;100.00;73826.56;4742678;29;104300;-72
2024/01/18 01:35:01;;;;;;;;;9.75;8.50;;;;;-143.90;100.00;73832.78;4747722;29;102450;-71
2024/01/18 01:37:28;;;;;;;;;12.00;8.25;;;;;-143.90;100.00;73828.63;4743259;29;102054;-71
2024/01/18 01:39:54;;;;;;;;;9.25;7.00;;;;;-143.90;100.00;73820.38;4747240;29;102532;-71
2024/01/18 01:42:21;;;;;;;;;9.75;9.00;;;;;-143.90;100.00;73814.16;4746593;29;104458;-70
2024/01/18 01:44:49;;;;;;;;;7.50;6.25;;;;;-143.90;100.00;73807.97;4740076;29;102326;-70
2024/01/18 01:47:16;;;;;;;;;8.00;6.25;;;;;-143.90;100.00;73805.91;4750613;29;102355;-70
2024/01/18 01:49:42;;;;;;;;;7.50;6.25;;;;;-143.90;100.00;73803.84;4735221;29;102603;-70
2024/01/18 01:52:11;;;;;;;;;6.00;5.75;;;;;-143.90;100.00;73795.56;4734691;29;104162;-70
2024/01/18 01:54:38;;;;;;;;;5.50;4.25;;;;;-143.90;100.00;73779.03;4745939;29;102371;-71
2024/01/18 01:57:05;;;;;;;;;5.50;5.00;;;;;-143.90;100.00;73770.78;4752519;29;102504;-70
2024/01/18 01:59:33;;;;;;;;;7.75;6.75;;;;;-143.90;100.00;73764.56;4744722;29;102617;-70
2024/01/18 02:01:59;;;;;;;;;7.50;7.00;;;;;-143.90;100.00;73758.38;4747197;29;104877;-72
2024/01/18 02:04:27;;;;;;;;;7.00;5.50;;;;;-143.90;100.00;73745.97;4746813;29;103756;-71
2024/01/18 02:06:57;;;;;;;;;6.50;4.00;;;;;-143.90;100.00;73733.56;4751150;29;102768;-71
2024/01/18 02:09:26;;;;;;;;;9.50;5.25;;;;;-143.90;100.00;73725.31;4754809;29;102071;-71
2024/01/18 02:11:53;;;;;;;;;6.00;5.50;;;;;-143.90;100.00;73721.16;4752545;29;104042;-71
2024/01/18 02:14:21;;;;;;;;;10.25;5.25;;;;;-143.90;100.00;73723.22;4747466;29;102394;-71
2024/01/18 02:16:47;;;;;;;;;5.50;5.00;;;;;-143.90;100.00;73708.78;4755704;29;104668;-71
2024/01/18 02:19:14;;;;;;;;;5.00;5.00;;;;;-143.90;100.00;73710.84;4751096;29;102463;-72
2024/01/18 02:21:41;;;;;;;;;7.50;6.00;;;;;-143.90;100.00;73712.91;4742613;29;104261;-71
2024/01/18 02:24:20;;;;;;;;;5.50;5.00;;;;;-143.90;100.00;73706.69;4748981;29;102342;-71
2024/01/18 02:26:47;;;;;;;;;7.00;5.00;;;;;-143.90;100.00;73706.69;4752407;29;104588;-70
2024/01/18 02:29:13;;;;;;;;;7.75;5.75;;;;;-143.90;100.00;73714.97;4751946;29;102201;-70
2024/01/18 02:31:40;;;;;;;;;5.00;3.00;;;;;-143.90;100.00;73719.09;4738873;29;104039;-70
2024/01/18 02:34:13;;;;;;;;;2.00;2.00;;;;;-143.90;100.00;73717.03;4745908;29;102345;-71
2024/01/18 02:36:40;;;;;;;;;3.00;2.00;;;;;-143.90;100.00;73721.16;4745927;29;102692;-70
2024/01/18 02:39:07;;;;;;;;;3.00;2.50;;;;;-143.90;100.00;73729.44;4763086;29;102315;-70
2024/01/18 02:41:35;;;;;;;;;2.50;1.75;;;;;-143.90;100.00;73729.44;4746988;29;104212;-72
2024/01/18 02:44:01;;;;;;;;;2.50;2.00;;;;;-143.90;100.00;73741.84;4748101;29;102126;-71
2024/01/18 02:46:32;;;;;;;;;3.00;2.00;;;;;-143.90;100.00;73731.50;4754942;29;102305;-70
2024/01/18 02:49:00;;;;;;;;;2.75;2.50;;;;;-143.90;100.00;73741.84;4750420;29;103713;-71
2024/01/18 02:51:27;;;;;;;;;3.00;2.75;;;;;-143.90;100.00;73739.78;4746341;29;109702;-71
2024/01/18 02:53:54;;;;;;;;;5.00;2.25;;;;;-143.90;100.00;73756.31;4742382;29;103001;-71
2024/01/18 02:56:22;;;;;;;;;6.75;5.00;;;;;-143.90;100.00;73758.38;4752647;29;102393;-72
2024/01/18 02:58:48;;;;;;;;;3.00;3.00;;;;;-143.90;100.00;73770.78;4757488;29;102320;-71
2024/01/18 03:01:15;;;;;;;;;5.75;5.00;;;;;-143.90;100.00;73795.56;4754373;29;103723;-70
2024/01/18 03:03:42;;;;;;;;;9.00;6.00;;;;;-143.90;100.00;73814.16;4744675;29;103021;-72
2024/01/18 03:06:08;;;;;;;;;11.00;6.75;;;;;-143.90;100.00;73820.38;4750236;29;102089;-71
2024/01/18 03:08:36;;;;;;;;;7.25;7.00;;;;;-143.90;100.00;73824.50;4751631;29;103835;-71
2024/01/18 03:11:03;;;;;;;;;7.00;7.00;;;;;-143.90;100.00;73820.38;4740200;29;104442;-72
2024/01/18 03:13:30;;;;;;;;;12.75;10.50;;;;;-143.90;100.00;73828.63;4738124;29;102147;-72
2024/01/18 03:15:57;;;;;;;;;12.75;9.00;;;;;-143.90;100.00;73832.78;4734702;29;102524;-71
2024/01/18 03:18:24;;;;;;;;;14.00;13.00;;;;;-143.90;100.00;73843.09;4752027;29;102199;-71
2024/01/18 03:20:50;;;;;;;;;15.50;13.00;;;;;-143.90;100.00;73849.31;4748477;29;104051;-71
2024/01/18 03:23:17;;;;;;;;;12.00;10.75;;;;;-143.90;100.00;73853.44;4751181;29;103242;-71
2024/01/18 03:25:44;;;;;;;;;8.50;8.50;;;;;-143.90;100.00;73857.56;4713259;29;103591;-71
2024/01/18 03:28:10;;;;;;;;;13.75;13.25;;;;;-143.90;100.00;73894.78;4740920;29;102220;-72
2024/01/18 03:30:37;;;;;;;;;14.75;11.25;;;;;-143.90;100.00;73888.56;4731160;29;104045;-71
2024/01/18 03:33:04;;;;;;;;;12.25;12.00;;;;;-143.90;100.00;73903.03;4730148;29;104727;-71
2024/01/18 03:35:30;;;;;;;;;11.75;10.25;;;;;-143.90;100.00;73913.38;4728356;29;102385;-72
2024/01/18 03:37:57;;;;;;;;;15.50;12.00;;;;;-143.90;100.00;73913.38;4737341;29;102195;-71
2024/01/18 03:40:23;;;;;;;;;11.00;11.00;;;;;-143.90;100.00;73919.56;4737791;29;104060;-72
2024/01/18 03:42:50;;;;;;;;;10.50;10.50;;;;;-143.90;100.00;73915.44;4729009;29;102736;-72
2024/01/18 03:45:17;;;;;;;;;9.50;7.00;;;;;-143.90;100.00;73915.44;4720343;29;102567;-72
2024/01/18 03:47:43;;;;;;;;;10.00;7.25;;;;;-143.90;100.00;73919.56;4720743;29;102415;-71
2024/01/18 03:50:14;;;;;;;;;2.50;2.50;;;;;-143.90;100.00;73925.78;4738012;29;104055;-71
2024/01/18 03:52:40;;;;;;;;;3.50;3.50;;;;;-143.90;100.00;73927.84;4718712;29;104843;-70
2024/01/18 03:55:07;;;;;;;;;3.00;3.00;;;;;-143.90;100.00;73956.78;4710606;29;104931;-71
2024/01/18 03:57:34;;;;;;;;;10.75;8.00;;;;;-143.90;100.00;73993.97;4723268;29;102214;-70
2024/01/18 04:00:02;;;;;;;;;17.00;14.00;;;;;-143.90;100.00;74012.56;4725656;29;104067;-71
2024/01/18 04:02:28;;;;;;;;;24.25;20.00;;;;;-143.90;100.00;74022.91;4732098;29;102607;-71
2024/01/18 04:04:55;;;;;;;;;20.75;19.50;;;;;-143.90;100.00;74022.91;4724185;29;102498;-70
2024/01/18 04:07:22;;;;;;;;;23.50;20.75;;;;;-143.90;100.00;74016.72;4731711;29;102408;-71
2024/01/18 04:09:49;;;;;;;;;26.50;25.25;;;;;-143.90;100.00;74024.97;4717646;29;104293;-70
2024/01/18 04:12:16;;;;;;;;;16.75;15.50;;;;;-143.90;100.00;74008.44;4723301;29;102334;-71
2024/01/18 04:14:43;;;;;;;;;11.75;10.00;;;;;-143.90;100.00;73989.84;4729515;29;102128;-71
2024/01/18 04:17:13;;;;;;;;;7.00;6.25;;;;;-143.90;100.00;73983.66;4726604;29;102534;-71
2024/01/18 04:19:40;;;;;;;;;9.00;7.50;;;;;-143.90;100.00;73991.91;4718411;29;104163;-71
2024/01/18 04:22:07;;;;;;;;;15.25;9.75;;;;;-143.90;100.00;73996.03;4724240;29;103012;-72
2024/01/18 04:24:34;;;;;;;;;10.50;7.00;;;;;-143.90;100.00;73985.72;4738011;29;102517;-71
2024/01/18 04:27:01;;;;;;;;;8.50;5.25;;;;;-143.90;100.00;73973.31;4748975;29;102057;-71
2024/01/18 04:29:28;;;;;;;;;9.25;7.00;;;;;-143.90;100.00;73960.91;4740236;29;104511;-72
2024/01/18 04:31:55;;;;;;;;;10.00;9.00;;;;;-143.90;100.00;73948.50;4734682;29;102347;-71
2024/01/18 04:34:22;;;;;;;;;7.25;5.00;;;;;-143.90;100.00;73936.09;4744067;29;104960;-71
2024/01/18 04:36:48;;;;;;;;;7.75;7.00;;;;;-143.90;100.00;73927.84;4746587;29;102353;-71
2024/01/18 04:39:15;;;;;;;;;10.00;9.00;;;;;-143.90;100.00;73911.31;4745269;29;103985;-71
2024/01/18 04:41:42;;;;;;;;;9.75;8.25;;;;;-143.90;100.00;73905.09;4744170;29;104156;-72
2024/01/18 04:44:08;;;;;;;;;12.00;10.50;;;;;-143.90;100.00;73894.78;4743997;29;105149;-72
2024/01/18 04:46:35;;;;;;;;;14.50;11.00;;;;;-143.90;100.00;73890.63;4744444;29;102492;-71
2024/01/18 04:49:02;;;;;;;;;11.50;11.25;;;;;-143.90;100.00;73886.50;4745906;29;104308;-71
2024/01/18 04:51:29;;;;;;;;;11.00;10.00;;;;;-143.90;100.00;73890.63;4739433;29;102297;-72
2024/01/18 04:53:55;;;;;;;;;10.75;9.50;;;;;-143.90;100.00;73886.50;4737779;29;102070;-71
2024/01/18 04:56:22;;;;;;;;;8.50;8.25;;;;;-143.90;100.00;73886.50;4737072;29;102512;-71
2024/01/18 04:58:49;;;;;;;;;11.00;9.25;;;;;-143.90;100.00;73882.38;4748862;29;104144;-71
2024/01/18 05:01:16;;;;;;;;;13.50;10.75;;;;;-143.90;100.00;73878.25;4733427;29;102037;-71
2024/01/18 05:03:43;;;;;;;;;10.00;9.25;;;;;-143.90;100.00;73878.25;4744925;29;102468;-71
2024/01/18 05:06:10;;;;;;;;;10.00;10.00;;;;;-143.90;100.00;73878.25;4755817;29;102525;-71
2024/01/18 05:08:36;;;;;;;;;10.00;7.75;;;;;-143.90;100.00;73878.25;4754367;29;104133;-70
2024/01/18 05:11:03;;;;;;;;;15.00;9.00;;;;;-143.90;100.00;73880.31;4742225;29;104568;-71
2024/01/18 05:13:30;;;;;;;;;10.25;9.50;;;;;-143.90;100.00;73882.38;4742470;29;102320;-72
2024/01/18 05:15:59;;;;;;;;;14.25;11.50;;;;;-143.90;100.00;73882.38;4746888;29;101970;-70
2024/01/18 05:18:26;;;;;;;;;10.75;10.25;;;;;-143.90;100.00;73882.38;4754215;29;104212;-71
2024/01/18 05:20:52;;;;;;;;;14.00;11.00;;;;;-143.90;100.00;73880.31;4750205;29;102517;-71
2024/01/18 05:23:19;;;;;;;;;16.00;12.75;;;;;-143.90;100.00;73880.31;4752112;29;102426;-72
2024/01/18 05:25:45;;;;;;;;;16.00;16.00;;;;;-143.90;100.00;73886.50;4740344;29;102287;-72
2024/01/18 05:28:12;;;;;;;;;15.50;12.25;;;;;-143.90;100.00;73894.78;4752667;29;104334;-71
2024/01/18 05:30:39;;;;;;;;;22.25;16.75;;;;;-143.90;100.00;73900.97;4747441;29;102320;-72
2024/01/18 05:33:05;;;;;;;;;17.50;16.75;;;;;-143.90;100.00;73898.91;4750265;29;102592;-71
2024/01/18 05:35:32;;;;;;;;;18.75;16.25;;;;;-143.90;100.00;73898.91;4750228;29;104725;-72
2024/01/18 05:37:59;;;;;;;;;24.25;21.75;;;;;-143.90;100.00;73915.44;4750286;29;104470;-71
2024/01/18 05:40:25;;;;;;;;;20.75;16.00;;;;;-143.90;100.00;73905.09;4754255;29;102934;-72
2024/01/18 05:42:52;;;;;;;;;22.75;19.50;;;;;-143.90;100.00;73919.56;4752183;29;102198;-71
2024/01/18 05:45:19;;;;;;;;;15.00;8.50;;;;;-143.90;100.00;73917.50;4752145;29;102229;-71
2024/01/18 05:47:45;;;;;;;;;23.75;17.25;;;;;-143.90;100.00;73925.78;4738168;29;103681;-71
2024/01/18 05:50:12;;;;;;;;;25.25;19.75;;;;;-143.90;100.00;73934.03;4743843;29;102567;-72
2024/01/18 05:52:39;;;;;;;;;25.50;23.25;;;;;-143.90;100.00;73938.19;4741771;29;102086;-72
2024/01/18 05:55:05;;;;;;;;;26.25;21.00;;;;;-143.90;100.00;73931.97;4745240;29;102498;-70
2024/01/18 05:57:34;;;;;;;;;23.75;18.50;;;;;-143.90;100.00;73934.03;4745634;29;104083;-71
2024/01/18 06:00:00;;;;;;;;;38.25;35.00;;;;;-143.90;100.00;73956.78;4745141;29;102561;-72
2024/01/18 06:02:27;;;;;;;;;34.50;30.50;;;;;-143.90;100.00;73952.63;4748975;29;104697;-71
2024/01/18 06:04:54;;;;;;;;;29.00;22.00;;;;;-143.90;100.00;73956.78;4744365;29;102337;-71
2024/01/18 06:07:20;;;;;;;;;49.25;38.50;;;;;-143.90;100.00;73979.50;4732791;29;104024;-71
2024/01/18 06:09:47;;;;;;;;;45.50;37.50;;;;;-143.90;100.00;73981.56;4745919;29;102306;-71
2024/01/18 06:12:14;;;;;;;;;37.25;34.25;;;;;-143.90;100.00;73993.97;4761485;29;101944;-71
2024/01/18 06:14:42;;;;;;;;;31.75;28.25;;;;;-143.90;100.00;73989.84;4757032;29;102626;-72
2024/01/18 06:17:10;;;;;;;;;35.75;29.50;;;;;-143.90;100.00;73985.72;4753334;29;104085;-72
2024/01/18 06:19:37;;;;;;;;;25.50;21.50;;;;;-143.90;100.00;73991.91;4753881;29;103027;-72
2024/01/18 06:22:03;;;;;;;;;23.25;21.75;;;;;-143.90;100.00;73991.91;4747826;29;107991;-72
2024/01/18 06:24:30;;;;;;;;;19.25;17.25;;;;;-143.90;100.00;73996.03;4757552;29;102260;-72
2024/01/18 06:26:57;;;;;;;;;27.00;22.25;;;;;-143.90;100.00;74002.25;4759881;29;104180;-71
2024/01/18 06:29:26;;;;;;;;;30.00;24.25;;;;;-143.90;100.00;73998.13;4755696;29;102278;-72
2024/01/18 06:31:53;;;;;;;;;24.50;21.50;;;;;-143.90;100.00;73996.03;4749260;29;102095;-72
2024/01/18 06:34:20;;;;;;;;;21.50;15.50;;;;;-143.90;100.00;74000.19;4759398;29;102518;-72
2024/01/18 06:36:47;;;;;;;;;11.50;10.00;;;;;-143.90;100.00;74006.38;4764715;29;104994;-72
2024/01/18 06:39:16;;;;;;;;;15.50;11.00;;;;;-143.90;100.00;74014.66;4760315;29;101996;-72
2024/01/18 06:41:43;;;;;;;;;16.00;14.00;;;;;-143.90;100.00;74014.66;4744892;29;102348;-72
2024/01/18 06:44:10;;;;;;;;;15.25;12.25;;;;;-143.90;100.00;74014.66;4757896;29;103791;-72
2024/01/18 06:46:37;;;;;;;;;13.75;13.50;;;;;-143.90;100.00;74022.91;4756823;29;108884;-72
2024/01/18 06:49:03;;;;;;;;;19.50;14.75;;;;;-143.90;100.00;74014.66;4760766;29;102827;-71
2024/01/18 06:51:30;;;;;;;;;20.75;16.75;;;;;-143.90;100.00;74020.84;4755262;29;102258;-71
2024/01/18 06:53:58;;;;;;;;;23.25;20.50;;;;;-143.90;100.00;74031.19;4751974;29;102062;-72
2024/01/18 06:56:25;;;;;;;;;40.25;34.75;;;;;-143.90;100.00;74029.13;4760265;29;107688;-71
2024/01/18 06:58:52;;;;;;;;;46.50;36.25;;;;;-143.90;100.00;74033.25;4761727;29;102394;-72
2024/01/18 07:01:19;;;;;;;;;33.50;30.25;;;;;-143.90;100.00;74020.84;4763281;29;102336;-72
2024/01/18 07:03:46;;;;;;;;;33.75;26.75;;;;;-143.90;100.00;74022.91;4751634;29;102435;-72
2024/01/18 07:06:12;;;;;;;;;25.75;20.00;;;;;-143.90;100.00;74018.78;4759232;29;104240;-73
2024/01/18 07:08:39;;;;;;;;;19.00;16.50;;;;;-143.90;100.00;74022.91;4754494;29;102542;-74
2024/01/18 07:11:06;;;;;;;;;23.00;19.00;;;;;-143.90;100.00;74027.03;4762213;29;102424;-72
2024/01/18 07:13:32;;;;;;;;;22.75;17.50;;;;;-143.90;100.00;74031.19;4745247;29;104199;-72
2024/01/18 07:15:59;;;;;;;;;27.25;21.75;;;;;-143.90;100.00;74033.25;4746401;29;104001;-73
2024/01/18 07:18:26;;;;;;;;;37.00;29.00;;;;;-143.90;100.00;74024.97;4763227;29;102322;-72
2024/01/18 07:20:53;;;;;;;;;31.50;24.50;;;;;-143.90;100.00;74020.84;4755368;29;102286;-72
2024/01/18 07:23:20;;;;;;;;;30.75;23.25;;;;;-143.90;100.00;74035.31;4741311;29;102272;-72
2024/01/18 07:25:46;;;;;;;;;40.50;34.75;;;;;-143.90;100.00;74031.19;4745642;29;104209;-72
2024/01/18 07:28:13;;;;;;;;;40.25;36.50;;;;;-143.90;100.00;74029.13;4759748;29;102384;-72
2024/01/18 07:30:40;;;;;;;;;33.50;29.00;;;;;-143.90;100.00;74027.03;4759737;29;102205;-75
2024/01/18 07:33:07;;;;;;;;;29.75;24.75;;;;;-143.90;100.00;74014.66;4762229;29;102260;-72
2024/01/18 07:35:34;;;;;;;;;38.75;30.00;;;;;-143.90;100.00;74010.50;4750323;29;108917;-73
2024/01/18 07:38:01;;;;;;;;;29.25;23.00;;;;;-143.90;100.00;74004.31;4758587;29;102357;-72
2024/01/18 07:40:28;;;;;;;;;31.00;23.50;;;;;-143.90;100.00;74002.25;4761196;29;104897;-74
2024/01/18 07:42:54;;;;;;;;;30.25;28.25;;;;;-143.90;100.00;73991.91;4759925;29;102620;-73
2024/01/18 07:45:21;;;;;;;;;43.50;34.00;;;;;-143.90;100.00;73989.84;4756276;29;104120;-72
2024/01/18 07:47:48;;;;;;;;;34.50;30.25;;;;;-143.90;100.00;73975.38;4755258;29;102226;-73
2024/01/18 07:50:15;;;;;;;;;35.00;29.25;;;;;-143.90;100.00;73981.56;4757462;29;102427;-72
2024/01/18 07:52:59;;;;;;;;;43.00;30.50;;;;;-143.90;100.00;73985.72;4762973;29;102080;-73
2024/01/18 07:55:27;;;;;;;;;35.25;33.25;;;;;-143.90;100.00;73993.97;4753877;29;103747;-72
2024/01/18 07:57:53;;;;;;;;;42.75;36.75;;;;;-143.90;100.00;73993.97;4738537;29;104635;-74
2024/01/18 08:00:20;;;;;;;;;36.25;34.00;;;;;-143.90;100.00;74002.25;4753027;29;102440;-74
2024/01/18 08:02:47;;;;;;;;;33.75;31.00;;;;;-143.90;100.00;74000.19;4749585;29;102495;-73
2024/01/18 08:05:14;;;;;;;;;39.50;34.00;;;;;-143.90;100.00;74014.66;4753516;29;104043;-74
2024/01/18 08:07:41;;;;;;;;;41.50;33.75;;;;;-143.90;100.00;74014.66;4748494;29;102315;-73
2024/01/18 08:10:09;;;;;;;;;39.50;33.50;;;;;-143.90;100.00;74018.78;4747144;29;105057;-73
2024/01/18 08:12:36;;;;;;;;;38.00;31.50;;;;;-143.90;100.00;74018.78;4756422;29;103118;-73
2024/01/18 08:15:04;;;;;;;;;40.50;33.00;;;;;-143.90;100.00;74027.03;4758502;29;104102;-74
2024/01/18 08:17:31;;;;;;;;;43.75;37.00;;;;;-143.90;100.00;74037.38;4750428;29;102262;-75
2024/01/18 08:19:58;;;;;;;;;41.50;34.25;;;;;-143.90;100.00;74051.84;4738481;29;102355;-74
2024/01/18 08:22:25;;;;;;;;;43.50;34.00;;;;;-143.90;100.00;74066.31;4745726;29;103035;-74
2024/01/18 08:24:51;;;;;;;;;41.75;35.00;;;;;-143.90;100.00;74064.25;4758272;29;104233;-72
2024/01/18 08:27:18;;;;;;;;;36.00;32.75;;;;;-143.90;100.00;74084.91;4758342;29;102554;-73
2024/01/18 08:29:45;;;;;;;;;42.75;31.75;;;;;-143.90;100.00;74084.91;4749406;29;103177;-74
2024/01/18 08:32:11;;;;;;;;;34.50;27.25;;;;;-143.90;100.00;74093.19;4756425;29;102267;-74
2024/01/18 08:34:38;;;;;;;;;37.75;29.75;;;;;-143.90;100.00;74109.72;4757728;29;104780;-74
2024/01/18 08:37:08;;;;;;;;;43.25;31.25;;;;;-143.90;100.00;74113.84;4755577;29;102779;-72
2024/01/18 08:39:35;;;;;;;;;42.50;34.25;;;;;-143.90;100.00;74124.19;4742325;29;102337;-72
2024/01/18 08:42:02;;;;;;;;;42.00;33.25;;;;;-143.90;100.00;74134.53;4761586;29;102272;-73
2024/01/18 08:44:29;;;;;;;;;40.25;35.25;;;;;-143.90;100.00;74136.59;4753401;29;103854;-73
2024/01/18 08:46:56;;;;;;;;;55.50;39.50;;;;;-143.90;100.00;74155.19;4756886;29;102238;-74
2024/01/18 08:49:24;;;;;;;;;47.00;39.33;;;;;-143.90;100.00;74155.19;4758014;29;102451;-73
2024/01/18 08:51:52;;;;;;;;;46.75;40.25;;;;;-143.90;100.00;74167.59;4753344;29;104502;-73
2024/01/18 08:54:20;;;;;;;;;53.00;42.00;;;;;-143.90;100.00;74163.47;4760956;29;103826;-72
2024/01/18 08:56:48;;;;;;;;;57.00;44.00;;;;;-143.90;100.00;74177.94;4757175;29;102955;-72
2024/01/18 08:59:15;;;;;;;;;60.00;48.00;;;;;-143.90;100.00;74196.53;4754442;29;102158;-73
2024/01/18 09:01:42;;;;;;;;;65.67;51.67;;;;;-143.90;100.00;74202.72;4748480;29;102240;-73
2024/01/18 09:04:09;;;;;;;;;60.00;46.00;;;;;-143.90;100.00;74204.78;4756110;29;108897;-72
2024/01/18 09:06:37;;;;;;;;;60.67;44.67;;;;;-143.90;100.00;74217.19;4746973;29;102195;-73
2024/01/18 09:09:04;;;;;;;;;73.00;51.67;;;;;-143.90;100.00;74219.25;4750720;29;102366;-73
2024/01/18 09:11:31;;;;;;;;;66.67;50.33;;;;;-143.90;100.00;74239.94;4755580;29;103138;-73
2024/01/18 09:13:58;;;;;;;;;59.00;42.00;;;;;-143.90;100.00;74250.25;4755025;29;109844;-73
2024/01/18 09:16:25;;;;;;;;;67.00;50.67;;;;;-143.90;100.00;74279.22;4751526;29;104554;-73
2024/01/18 09:18:51;;;;;;;;;49.67;43.00;;;;;-143.90;100.00;74287.47;4742740;29;102579;-73
2024/01/18 09:21:43;;;;;;;;;57.00;45.67;;;;;-143.90;100.00;74308.13;4748055;29;102442;-73
2024/01/18 09:24:11;;;;;;;;;59.00;43.33;;;;;-143.90;100.00;74320.53;4756048;29;108422;-72
2024/01/18 09:26:38;;;;;;;;;52.00;41.00;;;;;-143.90;100.00;74332.94;4754096;29;102232;-73
2024/01/18 09:29:05;;;;;;;;;58.33;42.00;;;;;-143.90;100.00;74337.06;4763259;29;101978;-73
2024/01/18 09:31:32;;;;;;;;;41.67;37.67;;;;;-143.90;100.00;74337.06;4753641;29;102316;-72
2024/01/18 09:34:08;;;;;;;;;55.33;44.00;;;;;-143.90;100.00;74339.16;4753883;29;104043;-73
2024/01/18 09:36:34;;;;;;;;;51.00;41.00;;;;;-143.90;100.00;74349.47;4755755;29;102651;-73
2024/01/18 09:39:01;;;;;;;;;43.33;38.00;;;;;-143.90;100.00;74341.22;4750861;29;102457;-72
2024/01/18 09:41:29;;;;;;;;;51.33;38.67;;;;;-143.90;100.00;74341.22;4756040;29;102627;-72
2024/01/18 09:44:03;;;;;;;;;53.33;43.33;;;;;-143.90;100.00;74357.75;4748873;29;103894;-72
2024/01/18 09:46:31;;;;;;;;;46.33;38.00;;;;;-143.90;100.00;74357.75;4746167;29;102345;-72
2024/01/18 09:48:58;;;;;;;;;47.33;37.67;;;;;-143.90;100.00;74353.63;4748449;29;102120;-73
2024/01/18 09:51:31;;;;;;;;;59.00;40.00;;;;;-143.90;100.00;74357.75;4753958;29;102683;-74
2024/01/18 09:54:00;;;;;;;;;57.67;42.33;;;;;-143.90;100.00;74357.75;4741671;29;105057;-73
2024/01/18 09:56:28;;;;;;;;;40.00;31.50;;;;;-143.90;100.00;74359.81;4742758;29;103069;-74
2024/01/18 09:58:56;;;;;;;;;55.33;41.00;;;;;-143.90;100.00;74357.75;4758685;29;101959;-72
2024/01/18 10:01:26;;;;;;;;;52.67;39.67;;;;;-143.90;100.00;74359.81;4760731;29;102536;-72
2024/01/18 10:03:54;;;;;;;;;53.00;43.67;;;;;-143.90;100.00;74359.81;4744038;29;104326;-72
2024/01/18 10:06:21;;;;;;;;;49.67;40.00;;;;;-143.90;100.00;74353.63;4726862;29;102476;-72
2024/01/18 10:08:49;;;;;;;;;35.75;30.25;;;;;-143.90;100.00;74345.34;4763877;29;102535;-72
2024/01/18 10:11:16;;;;;;;;;55.33;43.33;;;;;-143.90;100.00;74366.00;4759414;29;102064;-73
2024/01/18 10:13:51;;;;;;;;;56.00;42.00;;;;;-143.90;100.00;74359.81;4754353;29;104238;-73
2024/01/18 10:16:34;;;;;;;;;50.00;42.33;;;;;-143.90;100.00;74374.28;4750170;29;103601;-72
2024/01/18 10:19:02;;;;;;;;;54.00;43.00;;;;;-143.90;100.00;74382.56;4756138;29;102340;-73
2024/01/18 10:21:33;;;;;;;;;63.33;42.67;;;;;-143.90;100.00;74390.81;4749652;29;102447;-73
2024/01/18 10:24:01;;;;;;;;;66.33;49.33;;;;;-143.90;100.00;74403.22;4757057;29;104025;-73
2024/01/18 10:26:33;;;;;;;;;58.00;45.67;;;;;-143.90;100.00;74401.16;4762746;29;102377;-73
2024/01/18 10:28:59;;;;;;;;;61.00;44.67;;;;;-143.90;100.00;74415.63;4759451;29;102541;-73
2024/01/18 10:31:31;;;;;;;;;58.00;43.33;;;;;-143.90;100.00;74419.75;4748065;29;102347;-72
2024/01/18 10:33:58;;;;;;;;;57.33;40.67;;;;;-143.90;100.00;74425.97;4753992;29;103738;-72
2024/01/18 10:36:26;;;;;;;;;53.00;42.00;;;;;-143.90;100.00;74423.88;4759559;29;102805;-73
2024/01/18 10:38:53;;;;;;;;;49.33;39.00;;;;;-143.90;100.00;74423.88;4758316;29;102514;-73
2024/01/18 10:41:20;;;;;;;;;47.00;36.33;;;;;-143.90;100.00;74417.69;4760959;29;102150;-72
2024/01/18 10:43:50;;;;;;;;;47.00;39.00;;;;;-143.90;100.00;74415.63;4749745;29;104271;-72
2024/01/18 10:46:18;;;;;;;;;47.00;38.33;;;;;-143.90;100.00;74436.28;4756507;29;102643;-73
2024/01/18 10:48:46;;;;;;;;;35.75;30.50;;;;;-143.90;100.00;74442.50;4758773;29;102559;-71
2024/01/18 10:51:13;;;;;;;;;40.33;35.33;;;;;-143.90;100.00;74428.03;4762404;29;104345;-72